Time;durP1;ratioP1;P1;durP2;ratioP2;P2;SDS_P1;SDS_P2;PMS_P1;PMS_P2;Temp;Humidity;BMP_temperature;BMP_pressure;BME280_temperature;BME280_humidity;BME280_pressure;Samples;Min_cycle;Max_cycle;Signal;HPM_P1;HPM_P2
2021/06/02 00:00:31;;;;;;;;;;;;;;;17.06;50.67;101501.81;5117485;28;20478;-40
2021/06/02 00:02:59;;;;;;;5.70;1.93;;;;;;;16.70;53.20;101503.34;5117246;28;19912;-41
2021/06/02 00:05:27;;;;;;;5.70;2.08;;;;;;;16.72;54.23;101506.66;5117682;28;20657;-40
2021/06/02 00:07:53;;;;;;;3.30;2.10;;;;;;;16.63;53.77;101497.22;5117836;28;20035;-39
2021/06/02 00:10:19;;;;;;;;;;;;;;;16.83;51.40;101497.47;5117150;28;20395;-38
2021/06/02 00:12:44;;;;;;;2.55;2.03;;;;;;;16.55;54.75;101501.25;5117327;28;20006;-38
2021/06/02 00:15:10;;;;;;;;;;;;;;;16.76;51.54;101498.78;5117830;28;20100;-38
2021/06/02 00:17:36;;;;;;;6.03;2.25;;;;;;;16.47;54.65;101496.22;5117722;28;19912;-40
2021/06/02 00:20:03;;;;;;;5.38;2.30;;;;;;;16.42;55.08;101504.34;5116950;28;20024;-38
2021/06/02 00:22:29;;;;;;;4.05;2.35;;;;;;;16.41;55.32;101502.72;5116742;28;20035;-38
2021/06/02 00:24:56;;;;;;;;;;;;;;;16.57;52.97;101496.34;5118015;28;20049;-46
2021/06/02 00:27:22;;;;;;;3.00;2.20;;;;;;;16.36;55.78;101499.91;5117482;28;20000;-38
2021/06/02 00:29:49;;;;;;;5.18;2.45;;;;;;;16.20;55.44;101499.72;5117164;28;20333;-38
2021/06/02 00:32:14;;;;;;;5.03;2.75;;;;;;;16.22;55.95;101497.56;5115526;28;20059;-38
2021/06/02 00:34:40;;;;;;;;;;;;;;;16.45;53.20;101495.66;5116641;28;20071;-39
2021/06/02 00:37:08;;;;;;;3.53;2.30;;;;;;;16.22;55.47;101497.56;5117220;28;19956;-39
2021/06/02 00:39:34;;;;;;;4.93;2.40;;;;;;;16.10;55.26;101485.91;5117050;28;20122;-39
2021/06/02 00:42:01;;;;;;;4.35;2.53;;;;;;;16.03;56.12;101492.66;5116597;28;20031;-39
2021/06/02 00:44:26;;;;;;;6.05;2.88;;;;;;;15.92;56.52;101481.59;5116652;28;20387;-39
2021/06/02 00:46:52;;;;;;;;;;;;;;;16.22;53.64;101486.63;5116696;28;20039;-39
2021/06/02 00:49:24;;;;;;;4.55;3.08;;;;;;;15.91;55.05;101482.69;5116031;28;19911;-39
2021/06/02 00:51:56;;;;;;;5.60;2.70;;;;;;;15.82;55.62;101480.63;5117068;28;20024;-39
2021/06/02 00:54:26;;;;;;;4.00;2.95;;;;;;;15.84;56.01;101479.28;5115892;28;20031;-39
2021/06/02 00:56:54;;;;;;;3.67;2.70;;;;;;;15.85;56.09;101480.09;5116469;28;20085;-39
2021/06/02 00:59:32;;;;;;;3.75;2.80;;;;;;;15.81;55.67;101470.78;5116328;28;20024;-39
2021/06/02 01:02:02;;;;;;;4.88;2.95;;;;;;;15.76;55.98;101476.16;5116038;28;20024;-39
2021/06/02 01:04:28;;;;;;;5.60;2.53;;;;;;;15.77;56.20;101475.94;5116771;28;20062;-39
2021/06/02 01:06:54;;;;;;;4.50;2.60;;;;;;;15.69;57.34;101477.16;5116454;28;20038;-39
2021/06/02 01:09:22;;;;;;;5.20;3.15;;;;;;;15.72;56.73;101475.03;5115631;28;20490;-39
2021/06/02 01:11:49;;;;;;;3.33;2.72;;;;;;;15.57;57.97;101465.50;5115900;28;20066;-39
2021/06/02 01:14:15;;;;;;;4.47;3.03;;;;;;;15.63;58.03;101467.25;5115817;28;20194;-39
2021/06/02 01:16:40;;;;;;;;;;;;;;;15.84;55.19;101473.00;5116798;28;20177;-39
2021/06/02 01:19:09;;;;;;;3.63;2.78;;;;;;;15.52;57.56;101478.22;5115384;28;19907;-39
2021/06/02 01:21:41;;;;;;;5.38;3.28;;;;;;;15.42;58.60;101482.44;5114428;28;20024;-39
2021/06/02 01:24:08;;;;;;;6.90;3.38;;;;;;;15.43;57.94;101478.66;5115375;28;20576;-39
2021/06/02 01:26:35;;;;;;;5.25;3.00;;;;;;;15.40;58.46;101476.41;5115602;27;20038;-39
2021/06/02 01:29:01;;;;;;;3.58;2.88;;;;;;;15.43;59.08;101478.66;5115458;28;20034;-39
2021/06/02 01:31:44;;;;;;;;;;;;;;;15.62;56.19;101481.94;5115638;28;20027;-39
2021/06/02 01:34:36;;;;;;;3.83;3.10;;;;;;;15.39;58.10;101482.94;5115561;28;19911;-39
2021/06/02 01:37:20;;;;;;;4.50;2.85;;;;;;;15.33;58.56;101483.09;5116157;28;20102;-39
2021/06/02 01:40:08;;;;;;;4.88;3.05;;;;;;;15.31;59.14;101485.22;5115805;28;20038;-39
2021/06/02 01:43:18;;;;;;;4.13;3.00;;;;;;;15.27;59.10;101484.88;5114660;28;20076;-39
2021/06/02 01:46:01;;;;;;;3.13;2.72;;;;;;;15.24;59.00;101476.41;5115965;28;20114;-39
2021/06/02 01:48:34;;;;;;;6.05;3.30;;;;;;;15.10;60.22;101476.72;5115169;28;20394;-39
2021/06/02 01:51:08;;;;;;;3.65;3.22;;;;;;;15.23;59.65;101472.03;5114786;28;20028;-39
2021/06/02 01:53:58;;;;;;;4.68;3.60;;;;;;;15.22;59.26;101475.81;5114667;28;20027;-39
2021/06/02 01:56:40;;;;;;;4.00;3.20;;;;;;;15.06;59.66;101469.28;5115060;28;20028;-39
2021/06/02 01:59:30;;;;;;;4.78;3.47;;;;;;;15.10;59.49;101476.72;5115018;27;20035;-39
2021/06/02 02:02:15;;;;;;;3.72;3.10;;;;;;;15.03;60.25;101477.94;5114855;28;20031;-39
2021/06/02 02:04:53;;;;;;;5.22;3.38;;;;;;;15.02;60.33;101477.09;5115648;28;20024;-39
2021/06/02 02:07:51;;;;;;;4.38;3.47;;;;;;;15.10;60.17;101478.63;5115009;28;20027;-39
2021/06/02 02:10:42;;;;;;;4.70;4.00;;;;;;;15.08;59.31;101469.84;5115265;28;20024;-39
2021/06/02 02:13:26;;;;;;;5.10;3.95;;;;;;;14.87;61.26;101474.94;5115024;28;20058;-39
2021/06/02 02:16:18;;;;;;;5.72;3.70;;;;;;;15.08;59.46;101470.69;5114528;28;20072;-39
2021/06/02 02:19:08;;;;;;;4.38;3.63;;;;;;;15.02;59.86;101471.66;5114613;28;20024;-39
2021/06/02 02:21:43;;;;;;;8.10;3.90;;;;;;;15.03;60.54;101472.47;5114177;28;20057;-39
2021/06/02 02:24:11;;;;;;;5.40;3.80;;;;;;;14.97;59.76;101471.56;5114085;28;20406;-39
2021/06/02 02:27:02;;;;;;;4.90;3.75;;;;;;;15.10;59.24;101473.16;5114437;28;20114;-39
2021/06/02 02:29:55;;;;;;;7.50;3.85;;;;;;;15.15;59.05;101471.34;5108687;28;20429;-39
2021/06/02 02:32:58;;;;;;;5.25;3.78;;;;;;;15.10;59.15;101474.00;5114312;28;20024;-39
2021/06/02 02:35:51;;;;;;;5.20;3.95;;;;;;;15.13;58.96;101469.97;5071189;28;20055;-39
2021/06/02 02:38:32;;;;;;;4.30;3.72;;;;;;;15.02;59.31;101460.75;5071429;28;20047;-39
2021/06/02 02:41:09;;;;;;;8.05;4.00;;;;;;;15.11;59.50;101467.47;5071464;28;20028;-39
2021/06/02 02:43:37;;;;;;;6.80;4.28;;;;;;;14.90;59.98;101465.47;5071173;28;20096;-39
2021/06/02 02:46:29;;;;;;;4.88;3.67;;;;;;;14.89;59.51;101467.38;5071481;28;20497;-39
2021/06/02 02:49:09;;;;;;;6.15;4.07;;;;;;;14.81;59.70;101469.66;5071280;28;20480;-39
2021/06/02 02:51:54;;;;;;;6.30;4.35;;;;;;;14.62;60.58;101482.63;5071140;28;20528;-39
2021/06/02 02:54:54;;;;;;;7.25;4.10;;;;;;;14.64;60.34;101478.59;5070950;28;20535;-39
2021/06/02 02:57:27;;;;;;;8.13;4.88;;;;;;;14.55;61.55;101480.06;5071783;28;20155;-39
2021/06/02 02:59:58;;;;;;;4.40;4.00;;;;;;;14.57;61.11;101477.91;5071264;28;20033;-39
2021/06/02 03:02:29;;;;;;;4.80;4.28;;;;;;;14.60;60.95;101482.88;5071210;28;20125;-39
2021/06/02 03:04:58;;;;;;;6.20;3.88;;;;;;;14.55;61.27;101480.06;5071777;28;20127;-40
2021/06/02 03:07:24;;;;;;;7.95;4.45;;;;;;;14.47;61.93;101482.28;5071344;28;20047;-39
2021/06/02 03:10:13;;;;;;;5.63;4.20;;;;;;;14.55;61.09;101482.78;5100261;28;20075;-39
2021/06/02 03:13:01;;;;;;;6.20;4.35;;;;;;;14.39;61.43;101478.03;5114193;28;20050;-39
2021/06/02 03:15:42;;;;;;;6.22;4.07;;;;;;;14.47;61.73;101482.28;5114222;28;20048;-40
2021/06/02 03:18:31;;;;;;;5.47;4.22;;;;;;;14.53;61.41;101486.78;5112279;28;20038;-40
2021/06/02 03:21:11;;;;;;;7.45;3.97;;;;;;;14.49;61.92;101486.44;5112452;28;20035;-40
2021/06/02 03:23:56;;;;;;;4.85;4.20;;;;;;;14.52;61.41;101483.25;5113380;28;20027;-40
2021/06/02 03:26:27;;;;;;;4.93;4.18;;;;;;;14.54;61.90;101477.56;5114180;28;20096;-39
2021/06/02 03:29:06;;;;;;;5.57;4.60;;;;;;;14.50;62.06;101485.41;5113916;28;20452;-39
2021/06/02 03:31:52;;;;;;;6.00;4.38;;;;;;;14.48;61.58;101481.25;5113911;28;20027;-40
2021/06/02 03:34:46;;;;;;;6.25;4.85;;;;;;;14.51;61.99;101495.22;5113528;28;20051;-40
2021/06/02 03:37:43;;;;;;;7.32;4.60;;;;;;;14.41;61.92;101492.25;5113527;28;20463;-40
2021/06/02 03:40:22;;;;;;;6.32;5.07;;;;;;;14.38;62.53;101492.72;5113799;28;20025;-40
2021/06/02 03:42:57;;;;;;;5.65;4.88;;;;;;;14.31;63.08;101495.59;5113695;28;20107;-40
2021/06/02 03:45:37;;;;;;;7.03;4.90;;;;;;;14.21;63.07;101481.78;5113678;28;20040;-40
2021/06/02 03:48:18;;;;;;;6.50;4.60;;;;;;;14.22;62.81;101482.59;5113437;28;20047;-40
2021/06/02 03:51:01;;;;;;;6.25;4.72;;;;;;;14.29;62.90;101483.28;5113656;28;20023;-40
2021/06/02 03:53:46;;;;;;;14.43;5.55;;;;;;;14.26;63.62;101483.78;5113335;28;20034;-40
2021/06/02 03:56:31;;;;;;;7.45;5.40;;;;;;;14.36;63.13;101473.09;5114174;28;20020;-40
2021/06/02 03:59:16;;;;;;;7.75;4.82;;;;;;;14.41;62.93;101475.94;5113641;28;20096;-38
2021/06/02 04:01:50;;;;;;;6.22;4.85;;;;;;;14.42;63.95;101474.84;5113267;28;20115;-38
2021/06/02 04:04:24;;;;;;;7.97;5.22;;;;;;;14.49;63.44;101474.72;5114074;28;20040;-40
2021/06/02 04:07:05;;;;;;;5.93;5.10;;;;;;;14.58;62.97;101476.81;5115513;28;20035;-40
2021/06/02 04:09:39;;;;;;;6.97;5.47;;;;;;;14.54;63.91;101472.97;5116786;28;20043;-38
2021/06/02 04:12:42;;;;;;;9.35;5.43;;;;;;;14.67;62.81;101475.38;5117180;27;20099;-38
2021/06/02 04:15:08;;;;;;;8.02;5.72;;;;;;;14.66;63.43;101473.72;5117391;28;20036;-39
2021/06/02 04:17:34;;;;;;;6.70;5.15;;;;;;;14.71;63.39;101473.00;5116659;28;20163;-39
2021/06/02 04:20:03;;;;;;;6.80;6.00;;;;;;;14.66;63.77;101472.91;5116862;28;20032;-39
2021/06/02 04:22:31;;;;;;;7.15;5.55;;;;;;;14.73;63.84;101468.13;5117406;28;20039;-39
2021/06/02 04:24:56;;;;;;;10.23;5.20;;;;;;;14.78;63.53;101467.41;5116469;28;20039;-39
2021/06/02 04:27:23;;;;;;;11.43;6.40;;;;;;;14.77;63.50;101465.75;5116726;28;20023;-39
2021/06/02 04:29:50;;;;;;;7.45;5.45;;;;;;;14.79;62.77;101464.47;5116970;28;20027;-39
2021/06/02 04:32:16;;;;;;;8.45;5.80;;;;;;;14.74;61.79;101468.97;5116542;28;20468;-39
2021/06/02 04:34:43;;;;;;;10.95;6.15;;;;;;;14.79;64.43;101472.63;5116332;28;20084;-39
2021/06/02 04:37:10;;;;;;;7.53;6.72;;;;;;;14.91;64.31;101475.28;5116477;28;20023;-39
2021/06/02 04:39:37;;;;;;;9.10;6.57;;;;;;;14.97;63.92;101468.03;5117324;28;20027;-39
2021/06/02 04:42:04;;;;;;;8.27;6.43;;;;;;;15.05;64.17;101465.72;5116654;28;20023;-39
2021/06/02 04:44:31;;;;;;;9.73;6.30;;;;;;;15.17;64.17;101462.94;5116475;28;20036;-40
2021/06/02 04:46:59;;;;;;;9.15;6.68;;;;;;;15.15;63.83;101459.63;5116630;28;20456;-40
2021/06/02 04:50:01;;;;;;;8.93;6.75;;;;;;;15.23;63.63;101456.50;5116556;28;20088;-40
2021/06/02 04:52:33;;;;;;;7.25;6.55;;;;;;;15.27;63.97;101460.38;5114270;28;20042;-40
2021/06/02 04:55:17;;;;;;;8.13;6.47;;;;;;;15.34;63.33;101458.31;5116637;27;20121;-40
2021/06/02 04:58:10;;;;;;;7.60;6.32;;;;;;;15.46;63.66;101455.50;5116716;28;20031;-40
2021/06/02 05:01:08;;;;;;;9.10;6.97;;;;;;;15.61;63.28;101461.19;5116632;28;20035;-40
2021/06/02 05:03:43;;;;;;;9.98;7.28;;;;;;;15.85;62.47;101459.13;5115826;28;20352;-40
2021/06/02 05:06:45;;;;;;;7.55;6.38;;;;;;;16.03;62.54;101462.63;5115708;28;20036;-40
2021/06/02 05:09:48;;;;;;;11.18;6.05;;;;;;;16.26;61.13;101461.59;5116267;28;20363;-40
2021/06/02 05:12:51;;;;;;;15.05;6.75;;;;;;;16.45;61.49;101463.75;5116318;28;20075;-40
2021/06/02 05:15:40;;;;;;;12.45;5.85;;;;;;;16.59;60.18;101463.31;5115501;28;20427;-39
2021/06/02 05:18:27;;;;;;;8.30;5.75;;;;;;;16.78;60.77;101461.09;5115566;28;20024;-39
2021/06/02 05:24:19;;;;;;;7.68;5.82;;;;;;;16.95;59.36;101457.19;5115958;28;20070;-39
2021/06/02 05:27:05;;;;;;;8.85;6.13;;;;;;;17.05;59.18;101458.38;5116129;28;20020;-39
2021/06/02 05:30:15;;;;;;;6.63;5.75;;;;;;;17.22;58.48;101462.63;5116103;28;20483;-39
2021/06/02 05:33:10;;;;;;;7.43;6.70;;;;;;;17.21;58.96;101458.22;5073171;28;20052;-40
2021/06/02 05:35:58;;;;;;;11.45;6.85;;;;;;;17.32;57.49;101463.78;5072839;28;20113;-40
2021/06/02 05:39:00;;;;;;;7.10;5.57;;;;;;;17.45;56.01;101461.44;5055534;28;20086;-40
2021/06/02 05:41:56;;;;;;;8.95;5.90;;;;;;;17.62;56.44;101461.31;5072555;28;20028;-40
2021/06/02 05:44:54;;;;;;;9.63;5.80;;;;;;;17.72;56.25;101460.56;5012589;28;20037;-41
2021/06/02 05:47:38;;;;;;;6.82;5.30;;;;;;;17.81;55.88;101464.44;5012658;28;20029;-40
2021/06/02 05:50:21;;;;;;;9.13;5.55;;;;;;;17.88;54.04;101459.56;5012786;28;20117;-40
2021/06/02 05:53:23;;;;;;;8.07;5.45;;;;;;;17.92;54.52;101457.16;5012852;28;20037;-40
2021/06/02 05:56:35;;;;;;;13.48;6.07;;;;;;;17.88;53.94;101458.75;5012316;28;20049;-40
2021/06/02 05:59:10;;;;;;;10.00;6.35;;;;;;;17.95;54.57;101462.88;5012758;28;20034;-40
2021/06/02 06:01:55;;;;;;;9.07;6.05;;;;;;;17.93;53.31;101458.78;5012269;28;20050;-40
2021/06/02 06:04:58;;;;;;;9.50;5.65;;;;;;;17.92;55.11;101468.09;5012166;28;20056;-39
2021/06/02 06:08:02;;;;;;;8.60;5.70;;;;;;;18.06;53.79;101468.44;5011928;28;20045;-40
2021/06/02 06:10:49;;;;;;;8.18;5.63;;;;;;;18.16;53.06;101466.56;5071842;28;20424;-40
2021/06/02 06:13:25;;;;;;;9.35;5.55;;;;;;;18.20;52.63;101461.38;5071231;28;20164;-40
2021/06/02 06:16:23;;;;;;;9.30;6.40;;;;;;;18.24;53.54;101476.16;5071779;28;20048;-40
2021/06/02 06:19:15;;;;;;;7.10;5.90;;;;;;;18.36;53.48;101470.50;5072265;28;20028;-40
2021/06/02 06:22:02;;;;;;;8.02;5.80;;;;;;;18.41;53.77;101481.47;5103242;28;20032;-40
2021/06/02 06:24:38;;;;;;;7.13;5.50;;;;;;;18.49;53.25;101469.97;5114323;28;20062;-39
2021/06/02 06:27:15;;;;;;;9.32;5.32;;;;;;;18.65;52.64;101471.69;5115026;28;20028;-39
2021/06/02 06:29:49;;;;;;;7.13;6.13;;;;;;;18.73;52.33;101473.91;5114298;28;20375;-39
2021/06/02 06:32:16;;;;;;;9.77;6.03;;;;;;;18.85;53.98;101467.38;5114777;28;20032;-39
2021/06/02 06:34:46;;;;;;;12.05;6.50;;;;;;;18.90;52.63;101467.38;5114101;28;20412;-39
2021/06/02 06:37:13;;;;;;;10.43;6.63;;;;;;;18.96;55.10;101469.84;5114154;28;20069;-39
2021/06/02 06:39:58;;;;;;;10.93;6.90;;;;;;;19.11;54.19;101460.00;5114419;28;20035;-38
2021/06/02 06:42:27;;;;;;;11.63;8.43;;;;;;;18.92;53.58;101474.22;5114070;28;20102;-39
2021/06/02 06:45:09;;;;;;;7.32;6.60;;;;;;;18.96;54.30;101455.31;5114073;28;20115;-39
2021/06/02 06:47:35;;;;;;;7.05;6.38;;;;;;;19.07;54.36;101459.72;5114470;28;20355;-39
2021/06/02 06:50:02;;;;;;;8.18;7.30;;;;;;;19.05;53.00;101456.44;5113708;28;20034;-40
2021/06/02 06:52:29;;;;;;;9.02;7.00;;;;;;;19.15;52.84;101461.94;5113789;28;20122;-40
2021/06/02 06:54:57;;;;;;;8.23;7.22;;;;;;;19.27;53.08;101458.91;5114442;28;20053;-40
2021/06/02 06:57:23;;;;;;;10.13;6.40;;;;;;;19.35;52.03;101457.53;5114182;28;20027;-40
2021/06/02 06:59:50;;;;;;;7.82;6.55;;;;;;;19.40;51.15;101449.31;5113940;28;20032;-40
2021/06/02 07:02:16;;;;;;;12.82;7.05;;;;;;;19.42;50.58;101452.59;5114070;28;20028;-41
2021/06/02 07:04:42;;;;;;;12.38;7.63;;;;;;;19.44;51.91;101455.91;5114048;28;20059;-40
2021/06/02 07:07:09;;;;;;;10.35;7.18;;;;;;;19.55;52.22;101461.09;5114548;28;20035;-40
2021/06/02 07:09:35;;;;;;;10.77;6.85;;;;;;;19.60;52.76;101454.81;5114658;28;20050;-40
2021/06/02 07:12:00;;;;;;;;;;;;;;;19.73;50.29;101459.72;5114662;28;20531;-40
2021/06/02 07:14:30;;;;;;;10.77;7.55;;;;;;;19.66;50.16;101456.44;5114058;28;19965;-40
2021/06/02 07:16:57;;;;;;;9.50;7.10;;;;;;;19.69;51.04;101450.41;5113642;28;20036;-40
2021/06/02 07:19:23;;;;;;;15.95;7.40;;;;;;;19.73;50.37;101447.94;5114152;28;20438;-38
2021/06/02 07:21:50;;;;;;;9.50;6.65;;;;;;;19.83;50.93;101445.16;5113860;28;20380;-40
2021/06/02 07:24:19;;;;;;;11.20;6.70;;;;;;;19.94;50.89;101443.19;5113928;28;20031;-40
2021/06/02 07:26:46;;;;;;;12.65;7.68;;;;;;;20.00;49.50;101448.38;5113850;28;20054;-40
2021/06/02 07:29:11;;;;;;;9.00;6.97;;;;;;;20.12;51.02;101437.09;5114094;28;20073;-40
2021/06/02 07:31:37;;;;;;;8.68;6.90;;;;;;;20.19;49.70;101448.59;5113865;28;20036;-39
2021/06/02 07:34:02;;;;;;;;;;;;;;;20.24;48.55;101445.81;5113992;28;20030;-39
2021/06/02 07:36:28;;;;;;;11.25;7.20;;;;;;;20.35;47.12;101448.53;5113208;28;20375;-40
2021/06/02 07:38:53;;;;;;;;;;;;;;;20.49;49.12;101441.34;5113722;28;20028;-39
2021/06/02 07:41:18;;;;;;;7.73;7.00;;;;;;;20.57;49.11;101443.50;5115744;28;20420;-40
2021/06/02 07:43:43;;;;;;;;;;;;;;;20.66;47.79;101450.06;5118370;28;20272;-40
2021/06/02 07:46:09;;;;;;;10.63;7.25;;;;;;;20.67;49.58;101448.13;5118133;28;20049;-40
2021/06/02 07:48:34;;;;;;;;;;;;;;;20.85;49.33;101452.16;5118470;28;20367;-40
2021/06/02 07:51:00;;;;;;;12.03;7.07;;;;;;;20.92;48.85;101445.19;5117815;28;19958;-40
2021/06/02 07:53:26;;;;;;;9.48;7.22;;;;;;;20.90;47.56;101452.09;5117234;27;20126;-40
2021/06/02 07:55:52;;;;;;;9.77;7.97;;;;;;;20.95;49.45;101452.06;5117661;28;20034;-40
2021/06/02 07:58:17;;;;;;;;;;;;;;;21.07;46.53;101452.50;5117853;28;20019;-40
2021/06/02 08:00:43;;;;;;;10.68;6.72;;;;;;;21.23;48.30;101440.31;5117033;28;19908;-40
2021/06/02 08:03:08;;;;;;;10.95;5.75;;;;;;;21.37;45.04;101450.66;5117317;28;20050;-41
2021/06/02 08:05:33;;;;;;;;;;;;;;;21.48;47.17;101446.72;5117925;28;20031;-40
2021/06/02 08:07:59;;;;;;;10.40;5.17;;;;;;;21.59;45.86;101451.00;5117203;28;19950;-40
2021/06/02 08:10:25;;;;;;;;;;;;;;;21.72;46.89;101447.56;5117315;28;20752;-39
2021/06/02 08:12:51;;;;;;;8.67;5.70;;;;;;;21.85;45.46;101449.63;5117101;28;20385;-40
2021/06/02 08:15:16;;;;;;;;;;;;;;;21.99;45.56;101457.19;5117147;28;20031;-39
2021/06/02 08:17:42;;;;;;;8.43;5.53;;;;;;;22.06;43.77;101452.16;5116636;28;19911;-40
2021/06/02 08:20:10;;;;;;;9.57;5.18;;;;;;;22.09;42.99;101446.88;5117546;28;20024;-40
2021/06/02 08:22:36;;;;;;;7.57;5.43;;;;;;;22.17;42.81;101450.13;5116241;28;20506;-40
2021/06/02 08:25:07;;;;;;;8.10;4.90;;;;;;;22.22;42.91;101444.56;5117450;28;20184;-40
2021/06/02 08:27:32;;;;;;;6.65;5.10;;;;;;;22.32;42.54;101441.66;5117195;28;20028;-40
2021/06/02 08:29:58;;;;;;;7.85;5.05;;;;;;;22.44;45.02;101449.50;5116807;28;20080;-40
2021/06/02 08:32:24;;;;;;;7.95;5.28;;;;;;;22.50;44.82;101448.34;5116404;28;20052;-40
2021/06/02 08:34:51;;;;;;;6.72;5.05;;;;;;;22.63;43.70;101447.56;5116384;28;20110;-40
2021/06/02 08:37:16;;;;;;;9.07;5.28;;;;;;;22.58;44.08;101448.47;5116255;28;20039;-41
2021/06/02 08:39:42;;;;;;;7.32;5.05;;;;;;;22.74;41.46;101442.72;5116556;28;20027;-40
2021/06/02 08:42:09;;;;;;;7.45;4.90;;;;;;;22.82;42.47;101444.81;5116472;28;20039;-40
2021/06/02 08:44:36;;;;;;;8.02;5.32;;;;;;;22.83;41.69;101443.69;5117301;28;20035;-40
2021/06/02 08:47:03;;;;;;;11.30;4.55;;;;;;;23.00;42.21;101443.22;5116436;28;20092;-40
2021/06/02 08:49:28;;;;;;;6.32;4.40;;;;;;;23.17;41.07;101442.63;5116275;28;20460;-40
2021/06/02 08:51:54;;;;;;;7.68;4.15;;;;;;;23.19;39.49;101446.75;5115449;28;20077;-40
2021/06/02 08:54:22;;;;;;;6.40;4.38;;;;;;;23.32;39.89;101443.19;5116401;28;20481;-40
2021/06/02 08:56:48;;;;;;;6.95;4.35;;;;;;;23.30;40.27;101441.88;5116188;28;20054;-40
2021/06/02 08:59:16;;;;;;;5.40;4.10;;;;;;;23.31;40.13;101444.31;5116540;28;20055;-40
2021/06/02 09:01:41;;;;;;;9.63;4.15;;;;;;;23.56;40.69;101436.72;5116038;28;20030;-41
2021/06/02 09:04:08;;;;;;;6.00;3.63;;;;;;;23.73;40.66;101437.00;5116902;28;20370;-40
2021/06/02 09:06:36;;;;;;;5.18;3.70;;;;;;;23.94;38.88;101433.81;5116630;28;20087;-40
2021/06/02 09:09:04;;;;;;;5.82;3.05;;;;;;;23.98;37.60;101443.13;5115626;28;20482;-40
2021/06/02 09:11:35;;;;;;;5.22;2.90;;;;;;;24.08;37.51;101440.16;5115670;28;20019;-40
2021/06/02 09:14:01;;;;;;;5.75;2.80;;;;;;;24.18;36.95;101439.13;5114608;28;20047;-39
2021/06/02 09:16:30;;;;;;;6.72;2.90;;;;;;;24.30;35.56;101434.75;5115903;28;20038;-39
2021/06/02 09:19:09;;;;;;;3.92;2.30;;;;;;;24.45;37.24;101450.19;5115750;28;20032;-39
2021/06/02 09:21:38;;;;;;;5.45;3.30;;;;;;;24.44;34.86;101436.66;5115797;28;20468;-40
2021/06/02 09:24:05;;;;;;;6.50;2.85;;;;;;;24.36;36.03;101436.28;5115992;28;20103;-40
2021/06/02 09:26:31;;;;;;;4.97;3.20;;;;;;;24.60;33.89;101440.75;5116457;28;20073;-40
2021/06/02 09:29:14;;;;;;;4.75;3.13;;;;;;;24.74;35.48;101435.16;5115554;28;20414;-40
2021/06/02 09:31:47;;;;;;;9.32;3.55;;;;;;;24.75;35.40;101436.81;5115530;28;20459;-40
2021/06/02 09:34:17;;;;;;;5.10;3.10;;;;;;;24.89;34.80;101432.88;5115430;28;20030;-40
2021/06/02 09:36:51;;;;;;;3.80;2.85;;;;;;;24.94;34.77;101429.16;5116305;28;20038;-40
2021/06/02 09:39:19;;;;;;;5.45;2.45;;;;;;;25.04;36.07;101439.16;5115999;28;20028;-40
2021/06/02 09:41:53;;;;;;;5.47;1.90;;;;;;;25.20;35.30;101426.59;5114925;28;20199;-39
2021/06/02 09:44:27;;;;;;;3.60;3.05;;;;;;;25.05;32.22;101425.00;5115919;28;20102;-39
2021/06/02 09:47:00;;;;;;;4.88;2.47;;;;;;;24.82;31.02;101426.94;5115595;28;20023;-39
2021/06/02 09:49:26;;;;;;;2.40;1.77;;;;;;;25.01;33.13;101421.22;5115319;28;20395;-39
2021/06/02 09:51:52;;;;;;;4.55;2.60;;;;;;;25.19;32.23;101424.97;5115747;28;20085;-39
2021/06/02 09:54:22;;;;;;;2.92;2.47;;;;;;;25.24;32.08;101430.38;5115780;28;20410;-39
2021/06/02 09:56:48;;;;;;;2.85;1.90;;;;;;;25.28;32.06;101425.00;5115083;28;20035;-39
2021/06/02 09:59:15;;;;;;;4.00;1.73;;;;;;;25.44;31.45;101431.78;5115066;27;20100;-39
2021/06/02 10:01:55;;;;;;;3.80;2.10;;;;;;;25.36;30.63;101424.25;5115771;28;20024;-39
2021/06/02 10:04:31;;;;;;;2.08;1.52;;;;;;;25.40;31.40;101414.19;5114273;28;20108;-39
2021/06/02 10:06:57;;;;;;;2.67;1.33;;;;;;;25.41;29.71;101422.16;5115423;28;20446;-39
2021/06/02 10:09:30;;;;;;;3.97;1.58;;;;;;;25.50;30.47;101413.91;5115065;28;20025;-39
2021/06/02 10:12:00;;;;;;;4.60;2.20;;;;;;;25.64;31.09;101417.41;5114598;28;20112;-39
2021/06/02 10:14:26;;;;;;;3.90;2.00;;;;;;;25.78;30.22;101420.09;5114407;28;20027;-39
2021/06/02 10:16:53;;;;;;;2.60;1.75;;;;;;;25.71;29.43;101405.84;5114875;28;20027;-39
2021/06/02 10:19:40;;;;;;;4.43;2.15;;;;;;;25.86;31.24;101419.28;5114545;28;20471;-39
2021/06/02 10:22:21;;;;;;;3.05;1.52;;;;;;;26.05;32.13;101410.72;5114592;28;20118;-39
2021/06/02 10:24:49;;;;;;;3.35;1.60;;;;;;;26.03;30.55;101407.47;5115052;28;20024;-39
2021/06/02 10:27:15;;;;;;;2.40;1.65;;;;;;;26.23;31.28;101402.47;5113532;28;20195;-39
2021/06/02 10:29:41;;;;;;;5.45;1.40;;;;;;;26.42;30.71;101405.75;5114765;28;20035;-39
2021/06/02 10:32:07;;;;;;;2.53;1.50;;;;;;;26.46;28.94;101408.72;5114908;28;20016;-39
2021/06/02 10:34:32;;;;;;;2.35;1.40;;;;;;;26.54;29.68;101396.81;5114871;28;20455;-39
2021/06/02 10:36:58;;;;;;;3.40;1.60;;;;;;;26.61;29.70;101411.00;5114545;28;20059;-39
2021/06/02 10:39:26;;;;;;;3.20;1.85;;;;;;;26.65;29.15;101414.78;5115143;28;20024;-39
2021/06/02 10:41:57;;;;;;;4.47;1.65;;;;;;;26.76;29.90;101410.53;5114432;28;20023;-39
2021/06/02 10:44:29;;;;;;;4.28;1.73;;;;;;;26.74;29.41;101412.78;5114461;28;20414;-39
2021/06/02 10:46:57;;;;;;;3.00;1.70;;;;;;;26.43;29.50;101419.31;5114468;28;20027;-39
2021/06/02 10:49:27;;;;;;;5.38;2.13;;;;;;;26.72;29.73;101419.81;5114848;28;20360;-39
2021/06/02 10:51:56;;;;;;;4.15;1.63;;;;;;;26.79;29.65;101409.03;5114328;28;20024;-39
2021/06/02 10:54:30;;;;;;;6.50;2.15;;;;;;;26.82;28.68;101398.09;5114247;28;20019;-39
2021/06/02 10:57:01;;;;;;;4.90;1.48;;;;;;;26.78;29.52;101404.63;5114499;28;20472;-39
2021/06/02 10:59:31;;;;;;;2.17;1.38;;;;;;;26.79;28.58;101403.50;5114008;28;20020;-39
2021/06/02 11:02:08;;;;;;;4.38;1.95;;;;;;;26.84;29.19;101395.00;5113933;28;20037;-39
2021/06/02 11:04:36;;;;;;;2.30;1.42;;;;;;;26.85;28.71;101393.88;5113566;28;20038;-39
2021/06/02 11:07:15;;;;;;;4.68;1.48;;;;;;;26.85;29.34;101386.38;5114397;28;20112;-39
2021/06/02 11:09:55;;;;;;;2.80;1.45;;;;;;;26.96;28.47;101393.19;5114334;28;20363;-39
2021/06/02 11:12:22;;;;;;;1.90;1.30;;;;;;;27.06;27.79;101391.22;5114142;27;20061;-39
2021/06/02 11:14:48;;;;;;;3.83;1.40;;;;;;;27.29;28.79;101394.66;5113158;28;20489;-39
2021/06/02 11:17:16;;;;;;;2.63;1.40;;;;;;;27.34;29.01;101392.50;5113706;28;20031;-39
2021/06/02 11:19:43;;;;;;;6.03;1.40;;;;;;;27.30;26.68;101388.75;5113804;28;20023;-39
2021/06/02 11:22:14;;;;;;;4.93;1.58;;;;;;;27.30;29.67;101385.97;5114221;28;20030;-39
2021/06/02 11:24:41;;;;;;;6.03;1.80;;;;;;;27.36;27.93;101395.75;5113899;28;20024;-39
2021/06/02 11:27:10;;;;;;;2.63;1.17;;;;;;;27.28;29.28;101393.00;5113604;28;20110;-39
2021/06/02 11:29:36;;;;;;;4.25;1.50;;;;;;;27.31;27.97;101393.16;5113721;28;20028;-39
2021/06/02 11:32:15;;;;;;;2.25;1.27;;;;;;;27.34;28.86;101394.47;5113818;28;20519;-39
2021/06/02 11:34:40;;;;;;;4.05;1.48;;;;;;;27.09;27.58;101396.16;5113861;28;20060;-39
2021/06/02 11:37:11;;;;;;;4.90;1.70;;;;;;;27.23;28.87;101393.97;5113326;28;20494;-39
2021/06/02 11:39:38;;;;;;;3.03;1.40;;;;;;;27.26;29.46;101392.53;5113548;28;20031;-42
2021/06/02 11:42:08;;;;;;;5.00;1.80;;;;;;;27.22;30.02;101384.03;5113506;28;20027;-39
2021/06/02 11:44:36;;;;;;;2.17;1.40;;;;;;;27.26;27.89;101392.53;5114342;28;20051;-39
2021/06/02 11:47:01;;;;;;;2.05;1.20;;;;;;;27.39;28.05;101391.50;5113431;28;20035;-39
2021/06/02 11:49:35;;;;;;;2.80;1.33;;;;;;;27.56;28.22;101387.84;5113578;28;20027;-39
2021/06/02 11:52:08;;;;;;;2.28;1.55;;;;;;;27.73;28.21;101387.00;5113498;28;20110;-39
2021/06/02 11:54:53;;;;;;;3.45;1.40;;;;;;;27.84;27.73;101388.25;5113337;28;20024;-39
2021/06/02 11:57:30;;;;;;;3.47;2.03;;;;;;;27.73;27.27;101376.69;5113419;28;20031;-39
2021/06/02 11:59:57;;;;;;;2.25;1.42;;;;;;;27.85;28.46;101387.91;5114209;28;20034;-39
2021/06/02 12:02:23;;;;;;;2.30;1.42;;;;;;;28.08;30.84;101382.06;5113310;28;20020;-40
2021/06/02 12:04:48;;;;;;;2.63;1.58;;;;;;;28.19;26.55;101375.75;5113824;28;20100;-39